Time;durP1;ratioP1;P1;durP2;ratioP2;P2;SDS_P1;SDS_P2;PMS_P1;PMS_P2;Temp;Humidity;BMP_temperature;BMP_pressure;BME280_temperature;BME280_humidity;BME280_pressure;Samples;Min_cycle;Max_cycle;Signal;HPM_P1;HPM_P2
2023/02/16 00:00:43;;;;;;;0.30;0.30;;;;;;;7.39;100.00;101638.06;5036283;28;20113;-64
2023/02/16 00:03:14;;;;;;;0.28;0.28;;;;;;;7.39;100.00;101623.41;5034959;28;20065;-64
2023/02/16 00:05:40;;;;;;;0.20;0.20;;;;;;;7.37;100.00;101623.72;5034884;28;20025;-64
2023/02/16 00:08:06;;;;;;;0.20;0.20;;;;;;;7.36;100.00;101624.84;5035130;28;20036;-64
2023/02/16 00:10:36;;;;;;;0.20;0.20;;;;;;;7.34;100.00;101622.38;5035353;28;20377;-64
2023/02/16 00:16:04;;;;;;;0.30;0.30;;;;;;;7.30;100.00;101624.13;5035540;28;20036;-64
2023/02/16 00:18:29;;;;;;;0.25;0.25;;;;;;;7.27;100.00;101621.13;5034840;28;20388;-64
2023/02/16 00:20:55;;;;;;;0.25;0.25;;;;;;;7.30;100.00;101624.13;5035176;28;20045;-64
2023/02/16 00:23:20;;;;;;;0.30;0.30;;;;;;;7.26;100.00;101623.09;5034611;28;20395;-64
2023/02/16 00:25:46;;;;;;;0.20;0.20;;;;;;;7.29;100.00;101616.94;5034555;28;20025;-64
2023/02/16 00:28:20;;;;;;;0.20;0.20;;;;;;;7.23;100.00;101620.91;5034532;28;20029;-64
2023/02/16 00:30:48;;;;;;;0.30;0.30;;;;;;;7.22;100.00;101624.81;5035765;28;20484;-64
2023/02/16 00:33:16;;;;;;;0.28;0.28;;;;;;;7.24;100.00;101625.31;5034669;28;20075;-64
2023/02/16 00:35:44;;;;;;;0.40;0.40;;;;;;;7.22;100.00;101613.75;5034338;28;20033;-64
2023/02/16 00:38:11;;;;;;;0.20;0.20;;;;;;;7.19;100.00;101617.16;5034522;28;20423;-64
2023/02/16 00:40:37;;;;;;;0.20;0.20;;;;;;;7.18;100.00;101625.72;5034851;28;20031;-64
2023/02/16 00:43:06;;;;;;;0.30;0.30;;;;;;;7.16;100.00;101622.47;5035816;28;20131;-64
2023/02/16 00:45:35;;;;;;;0.20;0.20;;;;;;;7.10;100.00;101618.97;5034712;28;20060;-64
2023/02/16 00:48:01;;;;;;;0.30;0.30;;;;;;;7.04;100.00;101620.19;5034095;28;20037;-64
2023/02/16 00:50:36;;;;;;;0.28;0.28;;;;;;;7.08;100.00;101618.44;5034083;28;20032;-64
2023/02/16 00:53:02;;;;;;;0.20;0.20;;;;;;;7.11;100.00;101625.31;5034280;28;20037;-64
2023/02/16 00:55:31;;;;;;;0.22;0.22;;;;;;;7.09;100.00;101629.22;5033670;28;20068;-64
2023/02/16 00:58:34;;;;;;;0.30;0.30;;;;;;;7.12;100.00;101629.72;5034619;28;20041;-64
2023/02/16 01:01:14;;;;;;;0.30;0.30;;;;;;;7.12;100.00;101625.00;5034396;28;20092;-64
2023/02/16 01:03:40;;;;;;;0.28;0.28;;;;;;;7.08;100.00;101621.19;5034796;28;20109;-64
2023/02/16 01:11:38;;;;;;;0.40;0.40;;;;;;;7.04;100.00;101631.25;5035159;28;20040;-64
2023/02/16 01:14:04;;;;;;;0.20;0.20;;;;;;;7.04;100.00;101631.25;5033874;28;20029;-64
2023/02/16 01:16:40;;;;;;;0.20;0.20;;;;;;;6.99;100.00;101631.34;5034265;28;20384;-64
2023/02/16 01:19:06;;;;;;;0.30;0.30;;;;;;;6.96;100.00;101615.34;5033393;28;20026;-64
2023/02/16 01:21:34;;;;;;;0.20;0.20;;;;;;;7.06;100.00;101626.22;5033472;28;20039;-64
2023/02/16 01:23:59;;;;;;;0.20;0.20;;;;;;;7.02;100.00;101630.72;5033429;28;20025;-64
2023/02/16 01:26:25;;;;;;;0.20;0.20;;;;;;;7.00;100.00;101619.97;5033420;28;20124;-64
2023/02/16 01:28:50;;;;;;;0.30;0.30;;;;;;;7.04;100.00;101628.50;5034176;28;20061;-64
2023/02/16 01:31:16;;;;;;;0.30;0.30;;;;;;;6.94;100.00;101617.59;5033819;28;20420;-64
2023/02/16 01:33:43;;;;;;;0.20;0.20;;;;;;;6.92;100.00;101617.06;5033244;28;20455;-64
2023/02/16 01:36:47;;;;;;;0.30;0.30;;;;;;;6.99;100.00;101617.50;5033230;28;20082;-64
2023/02/16 01:39:15;;;;;;;;;;;;;;;7.05;100.00;101619.88;4957670;28;20027;-64
2023/02/16 01:42:12;;;;;;;0.30;0.30;;;;;;;7.16;100.00;101616.94;4957517;28;19937;-64
2023/02/16 01:44:58;;;;;;;0.20;0.20;;;;;;;7.16;100.00;101612.22;5014622;28;20119;-64
2023/02/16 01:47:33;;;;;;;0.22;0.22;;;;;;;7.25;100.00;101607.63;5033005;28;20056;-64
2023/02/16 01:50:06;;;;;;;0.30;0.30;;;;;;;7.23;100.00;101609.03;5033269;28;20081;-64
2023/02/16 01:52:42;;;;;;;0.30;0.30;;;;;;;7.32;100.00;101599.72;5032963;28;20022;-64
2023/02/16 01:55:22;;;;;;;0.20;0.20;;;;;;;7.48;100.00;101599.41;5033942;28;20136;-64
2023/02/16 01:57:50;;;;;;;0.20;0.20;;;;;;;7.41;100.00;101599.84;5033318;28;20029;-64
2023/02/16 02:00:26;;;;;;;0.30;0.30;;;;;;;7.41;100.00;101607.31;5033061;28;20075;-64
2023/02/16 02:05:41;;;;;;;0.25;0.25;;;;;;;7.31;100.00;101589.78;5034303;28;20053;-64
2023/02/16 02:08:25;;;;;;;0.20;0.20;;;;;;;7.34;100.00;101591.09;5033256;28;20382;-64
2023/02/16 02:10:56;;;;;;;0.30;0.30;;;;;;;7.35;100.00;101593.56;5032906;28;20026;-64
2023/02/16 02:13:40;;;;;;;0.20;0.20;;;;;;;7.27;100.00;101591.50;5032582;28;20072;-64
2023/02/16 02:16:10;;;;;;;0.30;0.30;;;;;;;7.28;100.00;101598.69;5032610;28;20032;-64
2023/02/16 02:18:35;;;;;;;0.20;0.20;;;;;;;7.22;100.00;101586.06;5033292;28;20057;-64
2023/02/16 02:24:41;;;;;;;0.20;0.20;;;;;;;7.21;100.00;101589.97;5033814;28;20149;-64
2023/02/16 02:27:19;;;;;;;0.30;0.30;;;;;;;7.29;100.00;101594.78;5032709;28;20025;-64
2023/02/16 02:30:05;;;;;;;0.20;0.20;;;;;;;7.22;100.00;101588.84;5033264;28;20180;-64
2023/02/16 02:32:52;;;;;;;0.30;0.30;;;;;;;7.27;100.00;101594.28;5032359;28;20029;-64
2023/02/16 02:35:33;;;;;;;0.20;0.20;;;;;;;7.26;100.00;101589.06;5031877;28;20143;-64
2023/02/16 02:38:14;;;;;;;0.20;0.20;;;;;;;7.23;100.00;101584.13;5033654;28;20029;-64
2023/02/16 02:40:53;;;;;;;0.20;0.20;;;;;;;7.30;100.00;101573.47;5036471;28;20095;-64
2023/02/16 02:43:44;;;;;;;0.20;0.20;;;;;;;7.27;100.00;101571.31;5038017;28;20017;-64
2023/02/16 02:46:24;;;;;;;0.30;0.30;;;;;;;7.31;100.00;101580.66;5036450;28;20041;-64
2023/02/16 02:48:49;;;;;;;0.30;0.30;;;;;;;7.28;100.00;101571.00;5036671;28;20025;-64
2023/02/16 02:51:27;;;;;;;0.22;0.22;;;;;;;7.28;100.00;101587.59;5036271;28;20041;-64
2023/02/16 03:02:52;;;;;;;0.20;0.20;;;;;;;7.32;100.00;101577.56;5037628;28;20060;-64
2023/02/16 03:05:21;;;;;;;0.20;0.20;;;;;;;7.35;100.00;101576.97;5036351;28;20380;-64
2023/02/16 03:07:51;;;;;;;0.30;0.30;;;;;;;7.37;100.00;101578.59;5036303;28;20453;-64
2023/02/16 03:13:20;;;;;;;0.30;0.30;;;;;;;7.45;100.00;101583.41;5037255;28;20156;-64
2023/02/16 03:15:54;;;;;;;0.30;0.30;;;;;;;7.39;100.00;101576.34;5035806;28;20037;-64
2023/02/16 03:29:38;;;;;;;0.20;0.20;;;;;;;7.53;100.00;101579.94;5037086;28;20044;-64
2023/02/16 03:32:06;;;;;;;0.20;0.20;;;;;;;7.61;100.00;101584.72;5035502;28;20021;-64
2023/02/16 03:34:35;;;;;;;0.22;0.22;;;;;;;7.61;100.00;101580.00;5035500;28;20491;-64
2023/02/16 03:37:00;;;;;;;0.30;0.30;;;;;;;7.59;100.00;101576.75;5035696;28;20029;-64
2023/02/16 03:39:30;;;;;;;0.30;0.30;;;;;;;7.60;100.00;101583.09;5035411;28;20388;-64
2023/02/16 03:41:56;;;;;;;0.30;0.30;;;;;;;7.57;100.00;101587.31;5035346;28;20064;-64
2023/02/16 03:44:23;;;;;;;0.20;0.20;;;;;;;7.63;100.00;101581.69;5035333;28;20040;-64
2023/02/16 03:46:50;;;;;;;0.20;0.20;;;;;;;7.61;100.00;101570.88;5036118;28;20030;-64
2023/02/16 03:49:20;;;;;;;0.20;0.20;;;;;;;7.63;100.00;101576.94;5036686;28;20156;-64
2023/02/16 03:51:47;;;;;;;0.20;0.20;;;;;;;7.58;100.00;101577.06;5035198;28;20025;-64
2023/02/16 03:54:13;;;;;;;0.20;0.20;;;;;;;7.59;100.00;101570.38;5034804;28;20053;-64
2023/02/16 03:56:38;;;;;;;0.30;0.30;;;;;;;7.67;100.00;101575.22;5035107;28;20036;-64
2023/02/16 03:59:06;;;;;;;0.20;0.20;;;;;;;7.72;100.00;101568.72;5034804;28;20041;-64
2023/02/16 04:01:31;;;;;;;0.20;0.20;;;;;;;7.63;100.00;101574.19;5035272;28;20033;-64
2023/02/16 04:03:57;;;;;;;0.20;0.20;;;;;;;7.63;100.00;101571.41;5035257;28;20449;-64
2023/02/16 04:06:23;;;;;;;0.22;0.22;;;;;;;7.58;100.00;101574.28;5034918;28;20387;-64
2023/02/16 04:08:49;;;;;;;0.22;0.22;;;;;;;7.58;100.00;101568.75;5035474;28;20022;-64
2023/02/16 04:14:06;;;;;;;0.30;0.30;;;;;;;7.68;100.00;101571.31;5036629;28;20040;-64
2023/02/16 04:16:31;;;;;;;0.20;0.20;;;;;;;7.69;100.00;101569.34;5035297;28;20033;-64
2023/02/16 04:18:59;;;;;;;0.28;0.28;;;;;;;7.65;100.00;101571.91;5035192;28;20633;-64
2023/02/16 04:21:24;;;;;;;0.28;0.28;;;;;;;7.67;100.00;101577.13;5035943;28;20105;-64
2023/02/16 04:23:52;;;;;;;0.20;0.20;;;;;;;7.63;100.00;101571.41;5034617;28;20381;-64
2023/02/16 04:26:21;;;;;;;0.20;0.20;;;;;;;7.61;100.00;101579.19;5034570;28;20036;-64
2023/02/16 04:28:49;;;;;;;0.20;0.20;;;;;;;7.69;100.00;101572.13;5035061;28;20018;-64
2023/02/16 04:31:14;;;;;;;0.20;0.20;;;;;;;7.73;100.00;101576.75;5034466;28;20038;-64
2023/02/16 04:33:42;;;;;;;0.30;0.30;;;;;;;7.71;100.00;101587.28;5035257;28;20030;-64
2023/02/16 04:36:11;;;;;;;0.20;0.20;;;;;;;7.71;100.00;101578.16;5034769;28;20065;-64
2023/02/16 04:38:37;;;;;;;0.20;0.20;;;;;;;7.69;100.00;101588.75;5034970;28;20029;-64
2023/02/16 04:41:05;;;;;;;0.20;0.20;;;;;;;7.65;100.00;101577.44;5034718;28;20395;-64
2023/02/16 04:43:33;;;;;;;0.20;0.20;;;;;;;7.68;100.00;101584.34;5034232;28;20032;-64
2023/02/16 04:45:59;;;;;;;0.20;0.20;;;;;;;7.69;100.00;101578.47;5034611;28;20026;-64
2023/02/16 04:48:28;;;;;;;0.20;0.20;;;;;;;7.80;100.00;101588.22;5034319;28;20092;-64
2023/02/16 04:50:55;;;;;;;0.20;0.20;;;;;;;7.77;100.00;101576.91;5034503;28;20037;-64
2023/02/16 04:53:21;;;;;;;0.20;0.20;;;;;;;7.76;100.00;101589.13;5034329;28;20033;-64
2023/02/16 04:55:47;;;;;;;0.30;0.30;;;;;;;7.81;100.00;101583.50;5035507;28;20491;-64
2023/02/16 04:58:16;;;;;;;0.22;0.22;;;;;;;7.78;100.00;101582.16;5033863;28;20036;-64
2023/02/16 05:00:44;;;;;;;0.28;0.28;;;;;;;7.80;100.00;101587.41;5033714;28;20404;-64
2023/02/16 05:03:10;;;;;;;0.30;0.30;;;;;;;7.85;100.00;101595.59;5034140;28;20021;-64
2023/02/16 05:05:36;;;;;;;0.20;0.20;;;;;;;7.88;100.00;101595.81;5033499;28;20396;-64
2023/02/16 05:08:02;;;;;;;0.28;0.28;;;;;;;7.84;100.00;101582.88;5033425;28;20044;-64
2023/02/16 05:10:28;;;;;;;0.25;0.25;;;;;;;7.85;100.00;101599.19;5034023;28;20021;-64
2023/02/16 05:15:37;;;;;;;0.20;0.20;;;;;;;7.85;100.00;101601.13;5035377;28;20056;-64
2023/02/16 05:18:03;;;;;;;0.20;0.20;;;;;;;7.85;100.00;101601.97;5034050;28;20465;-64
2023/02/16 05:23:12;;;;;;;0.30;0.30;;;;;;;7.83;100.00;101601.47;5035294;28;20068;-64
2023/02/16 05:25:38;;;;;;;0.20;0.20;;;;;;;7.87;100.00;101619.09;5033409;28;20485;-64
2023/02/16 05:28:04;;;;;;;0.28;0.28;;;;;;;7.68;100.00;101623.94;5033648;28;20025;-64
2023/02/16 05:30:29;;;;;;;0.20;0.20;;;;;;;7.63;100.00;101621.28;5033615;28;20080;-64
2023/02/16 05:32:55;;;;;;;0.30;0.30;;;;;;;7.61;100.00;101621.56;5033593;28;20025;-64
2023/02/16 05:35:21;;;;;;;0.20;0.20;;;;;;;7.68;100.00;101621.16;5033199;28;20534;-64
2023/02/16 05:37:46;;;;;;;0.20;0.20;;;;;;;7.74;100.00;101627.44;5033740;28;20039;-64
2023/02/16 05:40:12;;;;;;;0.30;0.30;;;;;;;7.80;100.00;101620.66;5033124;28;20483;-64
2023/02/16 05:42:38;;;;;;;0.20;0.20;;;;;;;7.86;100.00;101628.53;5034133;28;20022;-64
2023/02/16 05:45:03;;;;;;;0.20;0.20;;;;;;;7.83;100.00;101626.41;5033182;28;20030;-64
2023/02/16 05:47:29;;;;;;;0.20;0.20;;;;;;;7.87;100.00;101627.41;5033025;28;20108;-64
2023/02/16 05:49:55;;;;;;;0.20;0.20;;;;;;;7.92;100.00;101642.28;5033517;28;20053;-64
2023/02/16 05:52:20;;;;;;;0.20;0.20;;;;;;;7.98;100.00;101630.78;5032918;28;20443;-64
2023/02/16 05:54:45;;;;;;;0.20;0.20;;;;;;;8.01;100.00;101632.94;5032590;28;20054;-64
2023/02/16 05:57:11;;;;;;;0.20;0.20;;;;;;;8.00;100.00;101634.06;5032861;28;20208;-64
2023/02/16 05:59:37;;;;;;;0.25;0.25;;;;;;;8.04;100.00;101634.25;5033088;28;20075;-64
2023/02/16 06:02:02;;;;;;;0.20;0.20;;;;;;;8.05;100.00;101633.16;5033094;28;20498;-64
2023/02/16 06:04:28;;;;;;;0.20;0.20;;;;;;;8.07;100.00;101630.88;5032809;28;20040;-64
2023/02/16 06:06:53;;;;;;;0.28;0.28;;;;;;;8.10;100.00;101633.03;5032687;28;20093;-64
2023/02/16 06:09:21;;;;;;;0.20;0.20;;;;;;;8.14;100.00;101634.03;5032971;28;20033;-63
2023/02/16 06:11:47;;;;;;;0.20;0.20;;;;;;;8.20;100.00;101632.78;5032463;28;20029;-64
2023/02/16 06:14:17;;;;;;;0.22;0.22;;;;;;;8.25;100.00;101637.41;5032375;28;20099;-64
2023/02/16 06:16:46;;;;;;;0.20;0.20;;;;;;;8.32;100.00;101644.16;5032801;28;20379;-64
2023/02/16 06:19:12;;;;;;;0.22;0.22;;;;;;;8.26;100.00;101645.44;5032409;28;20029;-63
2023/02/16 06:21:38;;;;;;;0.20;0.20;;;;;;;8.33;100.00;101659.69;5032545;28;20032;-64
2023/02/16 06:24:05;;;;;;;0.30;0.30;;;;;;;8.34;100.00;101658.53;5032363;28;20033;-64
2023/02/16 06:26:31;;;;;;;0.30;0.30;;;;;;;8.38;100.00;101656.81;5033881;28;20083;-64
2023/02/16 06:28:57;;;;;;;0.22;0.22;;;;;;;8.43;100.00;101660.63;5032434;28;20116;-64
2023/02/16 06:31:23;;;;;;;0.20;0.20;;;;;;;8.51;100.00;101669.00;5033013;28;20030;-64
2023/02/16 06:33:50;;;;;;;0.20;0.20;;;;;;;8.56;100.00;101666.09;5032626;28;20464;-64
2023/02/16 06:36:16;;;;;;;0.20;0.20;;;;;;;8.58;100.00;101671.38;5032656;28;20469;-64
2023/02/16 06:38:42;;;;;;;0.30;0.30;;;;;;;8.60;100.00;101674.63;5032593;28;20548;-64
2023/02/16 06:41:08;;;;;;;0.20;0.20;;;;;;;8.64;100.00;101679.25;5032297;28;20056;-64
2023/02/16 06:43:36;;;;;;;0.20;0.20;;;;;;;8.65;100.00;101680.88;5032582;28;20033;-64
2023/02/16 06:46:02;;;;;;;0.20;0.20;;;;;;;8.80;100.00;101681.66;5032294;28;20053;-64
2023/02/16 06:48:27;;;;;;;0.30;0.30;;;;;;;8.90;100.00;101679.47;5032891;28;20107;-64
2023/02/16 06:50:53;;;;;;;0.20;0.20;;;;;;;8.91;100.00;101672.75;5032489;28;20464;-64
2023/02/16 06:53:19;;;;;;;0.20;0.20;;;;;;;9.00;100.00;101685.88;5032020;28;20091;-64
2023/02/16 06:55:45;;;;;;;0.20;0.20;;;;;;;9.04;100.00;101684.94;5032520;28;20041;-63
2023/02/16 06:58:11;;;;;;;0.20;0.20;;;;;;;9.08;100.00;101680.38;5031857;28;20041;-64
2023/02/16 07:00:36;;;;;;;0.20;0.20;;;;;;;9.17;100.00;101680.47;5032181;28;20128;-63
2023/02/16 07:03:02;;;;;;;0.20;0.20;;;;;;;9.21;100.00;101681.44;5032102;28;20036;-63
2023/02/16 07:05:30;;;;;;;0.20;0.20;;;;;;;9.28;100.00;101683.78;5032939;28;20029;-64
2023/02/16 07:07:56;;;;;;;0.20;0.20;;;;;;;9.39;100.00;101687.94;5033048;28;20029;-64
2023/02/16 07:10:21;;;;;;;0.30;0.30;;;;;;;9.40;100.00;101686.78;5033145;28;20121;-64
2023/02/16 07:12:47;;;;;;;0.20;0.20;;;;;;;9.45;100.00;101681.91;5032075;28;20556;-63
2023/02/16 07:15:13;;;;;;;0.20;0.20;;;;;;;9.52;100.00;101672.31;5031956;28;20030;-64
2023/02/16 07:17:38;;;;;;;0.20;0.20;;;;;;;9.57;100.00;101678.53;5032285;28;20064;-64
2023/02/16 07:20:05;;;;;;;0.20;0.20;;;;;;;9.68;100.00;101674.34;5032801;28;20029;-64
2023/02/16 07:22:31;;;;;;;0.20;0.20;;;;;;;9.77;100.00;101682.72;5031984;28;20034;-64
2023/02/16 07:24:59;;;;;;;0.20;0.20;;;;;;;9.81;100.00;101678.16;5034664;28;20028;-64
2023/02/16 07:27:25;;;;;;;0.22;0.22;;;;;;;9.90;100.00;101686.50;5035590;28;20029;-64
2023/02/16 07:29:51;;;;;;;0.30;0.30;;;;;;;9.82;100.00;101657.56;5035580;28;20242;-63
2023/02/16 07:32:16;;;;;;;0.20;0.20;;;;;;;10.02;100.00;101688.69;5035817;28;20083;-64
2023/02/16 07:34:45;;;;;;;0.20;0.20;;;;;;;10.05;99.11;101680.50;5035756;28;20056;-64
2023/02/16 07:37:11;;;;;;;0.20;0.20;;;;;;;10.12;98.98;101683.66;5035462;28;20132;-64
2023/02/16 07:39:39;;;;;;;0.20;0.20;;;;;;;10.20;98.50;101687.59;5035861;28;20112;-64
2023/02/16 07:42:06;;;;;;;0.20;0.20;;;;;;;10.30;98.95;101692.06;5035376;28;20041;-64
2023/02/16 07:44:32;;;;;;;0.20;0.20;;;;;;;10.31;97.29;101686.16;5035712;28;20033;-64
2023/02/16 07:46:59;;;;;;;0.20;0.20;;;;;;;10.42;97.32;101681.94;5035841;28;20526;-64
2023/02/16 07:49:25;;;;;;;0.20;0.20;;;;;;;10.49;96.62;101685.06;5035249;28;20026;-64
2023/02/16 07:51:50;;;;;;;0.20;0.20;;;;;;;10.53;95.00;101681.63;5035804;28;20030;-64
2023/02/16 07:54:16;;;;;;;0.28;0.28;;;;;;;10.58;94.32;101681.47;5034787;28;20550;-64
2023/02/16 07:56:41;;;;;;;0.20;0.20;;;;;;;10.62;92.93;101679.66;5035059;28;20063;-64
2023/02/16 07:59:07;;;;;;;0.20;0.20;;;;;;;10.64;92.23;101671.78;5035333;28;20025;-64
2023/02/16 08:01:34;;;;;;;0.30;0.30;;;;;;;10.68;90.52;101684.75;5035564;28;20025;-64
2023/02/16 08:04:00;;;;;;;0.20;0.20;;;;;;;10.72;90.55;101679.34;5034991;28;20033;-64
2023/02/16 08:06:25;;;;;;;0.20;0.20;;;;;;;10.74;90.16;101679.81;5035239;28;20032;-64
2023/02/16 08:08:51;;;;;;;0.20;0.20;;;;;;;10.82;90.75;101689.34;5035175;28;20041;-64
2023/02/16 08:11:26;;;;;;;0.20;0.20;;;;;;;10.90;93.55;101680.97;5034908;28;20075;-64
2023/02/16 08:13:51;;;;;;;0.20;0.20;;;;;;;10.90;93.97;101664.25;5035640;28;20547;-64
2023/02/16 08:16:20;;;;;;;0.20;0.20;;;;;;;11.08;94.76;101686.50;5034768;28;20025;-64
2023/02/16 08:18:45;;;;;;;0.20;0.20;;;;;;;11.19;95.73;101685.03;5035841;28;20075;-64
2023/02/16 08:21:18;;;;;;;0.20;0.20;;;;;;;11.20;96.43;101683.88;5034997;28;20030;-64
2023/02/16 08:23:53;;;;;;;0.30;0.30;;;;;;;11.32;96.17;101686.81;5034618;28;20034;-64
2023/02/16 08:26:20;;;;;;;0.20;0.20;;;;;;;11.37;93.94;101689.41;5034837;28;20017;-64
2023/02/16 08:28:48;;;;;;;0.20;0.20;;;;;;;11.13;88.97;101691.91;5035008;28;20091;-64
2023/02/16 08:31:23;;;;;;;0.20;0.20;;;;;;;11.00;87.17;101697.34;5034497;28;20483;-64
2023/02/16 08:33:50;;;;;;;0.20;0.20;;;;;;;11.20;87.79;101701.41;5034442;28;20030;-64
2023/02/16 08:36:16;;;;;;;0.20;0.20;;;;;;;11.34;86.14;101698.44;5034024;28;20396;-64
2023/02/16 08:38:42;;;;;;;0.20;0.20;;;;;;;11.19;85.19;101698.97;5034577;28;20072;-64
2023/02/16 08:41:11;;;;;;;0.20;0.20;;;;;;;11.12;83.59;101704.22;5034346;28;20052;-64
2023/02/16 08:43:36;;;;;;;0.20;0.20;;;;;;;11.19;83.57;101705.34;5034833;28;20372;-64
2023/02/16 08:46:02;;;;;;;0.20;0.20;;;;;;;11.31;84.13;101699.09;5034537;28;20041;-64
2023/02/16 08:48:29;;;;;;;0.20;0.20;;;;;;;11.58;83.53;101699.84;5034168;28;20549;-64
2023/02/16 08:50:55;;;;;;;0.20;0.20;;;;;;;12.00;78.33;101693.31;5034412;28;20049;-64
2023/02/16 08:53:22;;;;;;;0.20;0.20;;;;;;;12.32;79.04;101699.38;5033880;28;20573;-64
2023/02/16 08:55:57;;;;;;;0.20;0.20;;;;;;;12.16;80.44;101704.72;4994714;28;20044;-64
2023/02/16 08:58:23;;;;;;;0.20;0.20;;;;;;;12.27;77.01;101713.53;4996109;28;20039;-64
2023/02/16 09:00:51;;;;;;;0.20;0.20;;;;;;;12.41;75.78;101700.13;4995914;28;20030;-64
2023/02/16 09:03:20;;;;;;;0.20;0.20;;;;;;;12.45;75.13;101705.84;4994585;28;20070;-64
2023/02/16 09:05:47;;;;;;;0.20;0.20;;;;;;;12.78;75.45;101705.91;4994709;28;20473;-64
2023/02/16 09:08:13;;;;;;;0.20;0.20;;;;;;;12.82;74.65;101715.25;4994393;28;20041;-64
2023/02/16 09:10:39;;;;;;;0.20;0.20;;;;;;;12.96;75.21;101701.84;4994389;28;20037;-64
2023/02/16 09:13:05;;;;;;;0.20;0.20;;;;;;;12.88;73.86;101707.50;4994348;28;20074;-64
2023/02/16 09:15:33;;;;;;;0.30;0.30;;;;;;;12.97;74.42;101711.84;4995851;28;20109;-64
2023/02/16 09:17:58;;;;;;;0.20;0.20;;;;;;;12.88;74.02;101721.47;4995077;28;20461;-64
2023/02/16 09:20:26;;;;;;;0.25;0.25;;;;;;;13.21;73.00;101713.09;4994088;28;20069;-64
2023/02/16 09:22:52;;;;;;;0.20;0.20;;;;;;;13.34;71.57;101715.63;4994671;28;20108;-64
2023/02/16 09:25:18;;;;;;;0.20;0.20;;;;;;;13.33;70.75;101718.78;4994379;28;20030;-64
2023/02/16 09:27:45;;;;;;;0.20;0.20;;;;;;;13.21;70.79;101718.69;4994297;28;20380;-64
2023/02/16 09:30:12;;;;;;;0.20;0.20;;;;;;;13.72;70.21;101725.75;4994041;28;20033;-64
2023/02/16 09:32:37;;;;;;;0.10;0.10;;;;;;;13.61;70.30;101724.56;4993890;28;20544;-64
2023/02/16 09:35:06;;;;;;;0.30;0.30;;;;;;;13.85;68.60;101718.22;4994268;28;20026;-64
2023/02/16 09:37:32;;;;;;;0.20;0.20;;;;;;;13.71;67.48;101723.31;4995397;28;20362;-66
2023/02/16 09:39:57;;;;;;;0.20;0.20;;;;;;;13.74;67.69;101722.59;4995202;28;20033;-64
2023/02/16 09:42:27;;;;;;;0.20;0.20;;;;;;;13.25;69.16;101722.47;4996336;28;20044;-64
2023/02/16 09:45:06;;;;;;;0.20;0.20;;;;;;;13.06;69.32;101681.88;4996079;28;20030;-64
2023/02/16 09:47:36;;;;;;;0.20;0.20;;;;;;;13.26;70.13;101724.09;4995426;28;20484;-64
2023/02/16 09:50:15;;;;;;;0.20;0.20;;;;;;;13.29;71.36;101724.25;4996929;28;20062;-64
2023/02/16 09:52:56;;;;;;;0.20;0.20;;;;;;;13.52;69.70;101729.44;4995219;28;20037;-65
2023/02/16 09:55:23;;;;;;;0.25;0.25;;;;;;;13.75;68.65;101724.25;5027369;28;20503;-64
2023/02/16 09:58:14;;;;;;;0.20;0.20;;;;;;;13.63;68.54;101728.66;5033754;28;20037;-64
2023/02/16 10:00:47;;;;;;;0.20;0.20;;;;;;;13.55;67.90;101721.19;5034163;28;20095;-64
2023/02/16 10:03:33;;;;;;;0.20;0.20;;;;;;;13.51;66.57;101720.22;5036518;28;20026;-64
2023/02/16 10:06:29;;;;;;;0.20;0.20;;;;;;;13.71;66.96;101728.91;5034737;28;20034;-64
2023/02/16 10:09:03;;;;;;;0.20;0.20;;;;;;;13.67;66.08;101716.78;5033287;28;20108;-64
2023/02/16 10:11:37;;;;;;;0.20;0.20;;;;;;;13.72;65.90;101730.53;5032712;28;20030;-64
2023/02/16 10:14:29;;;;;;;0.20;0.20;;;;;;;13.70;66.60;101721.69;5032626;28;20510;-63
2023/02/16 10:17:27;;;;;;;0.20;0.20;;;;;;;13.66;67.14;101721.56;5034200;28;20033;-64
2023/02/16 10:20:00;;;;;;;0.20;0.20;;;;;;;13.27;67.46;101692.22;5034411;28;20029;-64
2023/02/16 10:22:32;;;;;;;0.20;0.20;;;;;;;13.31;68.68;101721.91;5035258;28;20064;-64
2023/02/16 10:25:04;;;;;;;0.20;0.20;;;;;;;13.52;67.67;101719.06;5034288;28;20048;-64
2023/02/16 10:27:42;;;;;;;0.20;0.20;;;;;;;13.95;65.44;101723.31;5034297;28;20030;-64
2023/02/16 10:30:19;;;;;;;0.20;0.20;;;;;;;14.07;65.06;101712.16;5033762;28;20484;-64
2023/02/16 10:33:02;;;;;;;0.20;0.20;;;;;;;14.21;63.03;101716.56;5033997;28;20041;-64
2023/02/16 10:35:39;;;;;;;0.20;0.20;;;;;;;14.32;62.16;101714.94;5034893;28;20029;-64
2023/02/16 10:38:36;;;;;;;0.20;0.20;;;;;;;14.57;60.69;101710.97;5032516;28;20042;-64
2023/02/16 10:41:31;;;;;;;0.20;0.20;;;;;;;14.65;60.68;101712.81;5032716;28;20033;-64
2023/02/16 10:44:04;;;;;;;0.20;0.20;;;;;;;14.57;59.79;101705.38;5033826;28;20029;-64
2023/02/16 10:46:42;;;;;;;0.20;0.20;;;;;;;14.27;60.52;101712.38;5032438;28;20030;-64
2023/02/16 10:49:14;;;;;;;0.20;0.20;;;;;;;14.42;61.20;101708.84;5031819;28;20034;-64
2023/02/16 10:51:47;;;;;;;0.25;0.25;;;;;;;14.35;60.56;101706.66;5034120;28;20029;-64
2023/02/16 10:54:26;;;;;;;0.20;0.20;;;;;;;14.49;60.70;101711.09;5032094;28;20055;-64
2023/02/16 10:57:24;;;;;;;0.20;0.20;;;;;;;14.62;59.73;101702.31;5033017;28;20484;-64
2023/02/16 10:59:50;;;;;;;0.20;0.20;;;;;;;14.62;59.19;101707.09;5030208;28;20037;-64
2023/02/16 11:02:21;;;;;;;0.20;0.20;;;;;;;14.71;59.96;101692.97;5036127;28;20554;-64
2023/02/16 11:04:51;;;;;;;0.20;0.20;;;;;;;14.79;59.65;101694.81;5036352;28;20029;-64
2023/02/16 11:07:28;;;;;;;0.20;0.20;;;;;;;14.56;60.54;101694.53;5036065;28;20083;-64
2023/02/16 11:10:00;;;;;;;0.20;0.20;;;;;;;14.43;60.24;101696.47;5037499;28;20036;-64
2023/02/16 11:12:33;;;;;;;0.20;0.20;;;;;;;14.33;60.18;101691.38;5035911;28;20026;-64
2023/02/16 11:15:15;;;;;;;0.20;0.20;;;;;;;14.56;59.65;101698.13;5035898;28;20033;-64
2023/02/16 11:17:56;;;;;;;0.20;0.20;;;;;;;14.66;59.16;101696.84;5036391;28;20025;-64
2023/02/16 11:20:32;;;;;;;0.20;0.20;;;;;;;14.55;59.29;101707.72;5035979;28;20037;-64
2023/02/16 11:23:16;;;;;;;0.20;0.20;;;;;;;14.68;59.71;101692.50;5035752;28;20056;-64
2023/02/16 11:26:05;;;;;;;0.30;0.30;;;;;;;14.61;59.76;101695.09;5035977;28;20061;-64
2023/02/16 11:28:37;;;;;;;0.20;0.20;;;;;;;14.45;60.16;101685.75;5036501;28;20029;-63
2023/02/16 11:31:08;;;;;;;0.20;0.20;;;;;;;14.34;60.85;101696.63;5035839;28;20144;-62
2023/02/16 11:33:36;;;;;;;0.20;0.20;;;;;;;14.45;59.94;101688.56;5036148;28;20376;-63
2023/02/16 11:36:16;;;;;;;0.20;0.20;;;;;;;14.32;59.59;101659.75;5035599;28;20033;-65
2023/02/16 11:38:58;;;;;;;0.20;0.20;;;;;;;14.61;59.88;101686.69;5035156;28;20029;-65
2023/02/16 11:41:25;;;;;;;0.20;0.20;;;;;;;14.59;59.32;101680.59;5035749;28;20029;-65
2023/02/16 11:43:52;;;;;;;0.20;0.20;;;;;;;14.54;58.87;101671.63;5035485;28;20025;-64
2023/02/16 11:46:20;;;;;;;0.20;0.20;;;;;;;14.38;58.31;101669.56;5035583;28;20043;-65
2023/02/16 11:48:46;;;;;;;0.20;0.20;;;;;;;14.22;58.74;101667.81;5035529;28;20079;-65
2023/02/16 11:51:18;;;;;;;0.20;0.20;;;;;;;14.26;59.08;101677.97;5035025;28;20124;-65
2023/02/16 11:53:44;;;;;;;0.20;0.20;;;;;;;14.42;59.46;101678.88;5036348;28;20468;-65
2023/02/16 11:56:16;;;;;;;0.20;0.20;;;;;;;14.40;59.43;101678.41;5035469;28;20522;-65
2023/02/16 11:58:45;;;;;;;0.20;0.20;;;;;;;14.37;59.07;101676.31;5037158;28;20033;-65
2023/02/16 12:01:20;;;;;;;0.20;0.20;;;;;;;14.33;59.31;101671.78;5035042;28;20128;-63
2023/02/16 12:04:10;;;;;;;0.20;0.20;;;;;;;14.19;60.10;101665.72;5035870;28;20038;-62
2023/02/16 12:06:36;;;;;;;0.20;0.20;;;;;;;14.11;60.18;101665.50;5035515;28;20029;-64
2023/02/16 12:09:16;;;;;;;0.20;0.20;;;;;;;14.00;60.06;101641.94;5035449;28;20365;-65
2023/02/16 12:11:48;;;;;;;0.20;0.20;;;;;;;14.05;60.22;101661.28;5034019;28;20447;-63
2023/02/16 12:14:31;;;;;;;0.20;0.20;;;;;;;14.08;59.75;101660.59;5034402;28;20034;-63
2023/02/16 12:17:06;;;;;;;0.20;0.20;;;;;;;14.04;60.40;101653.25;5034767;28;20051;-63
2023/02/16 12:19:53;;;;;;;0.20;0.20;;;;;;;14.06;59.90;101651.75;5035945;28;20033;-63
2023/02/16 12:22:26;;;;;;;0.20;0.20;;;;;;;14.05;59.72;101650.09;5034664;28;20033;-62
2023/02/16 12:25:23;;;;;;;0.20;0.20;;;;;;;14.04;59.69;101651.28;5034632;28;20033;-64